Time;durP1;ratioP1;P1;durP2;ratioP2;P2;SDS_P1;SDS_P2;PMS_P1;PMS_P2;Temp;Humidity;BMP_temperature;BMP_pressure;BME280_temperature;BME280_humidity;BME280_pressure;Samples;Min_cycle;Max_cycle;Signal;HPM_P1;HPM_P2
2021/08/22 00:00:29;;;;;;;11.18;8.93;;;25.00;99.90;;;;;;4993071;28;20058;-83
2021/08/22 00:02:54;;;;;;;9.73;8.73;;;25.00;99.90;;;;;;4994113;28;20120;-83
2021/08/22 00:05:20;;;;;;;11.70;9.48;;;24.90;99.90;;;;;;4996341;28;20382;-83
2021/08/22 00:07:46;;;;;;;9.73;8.70;;;24.90;99.90;;;;;;4995483;28;20462;-82
2021/08/22 00:10:12;;;;;;;10.95;9.05;;;24.90;99.90;;;;;;4996671;28;20029;-82
2021/08/22 00:12:38;;;;;;;10.45;8.98;;;24.90;99.90;;;;;;4997225;28;20053;-82
2021/08/22 00:15:05;;;;;;;9.55;8.65;;;24.70;99.90;;;;;;4996168;28;20378;-82
2021/08/22 00:17:30;;;;;;;11.85;9.02;;;24.70;99.90;;;;;;5000419;28;20033;-82
2021/08/22 00:19:56;;;;;;;12.95;8.98;;;24.70;99.90;;;;;;4998780;28;20027;-83
2021/08/22 00:22:22;;;;;;;12.75;9.10;;;24.70;99.90;;;;;;4981416;28;20097;-82
2021/08/22 00:24:47;;;;;;;9.82;8.80;;;24.70;99.90;;;;;;4998657;28;20390;-83
2021/08/22 00:27:13;;;;;;;11.68;9.23;;;24.70;99.90;;;;;;4994716;28;20964;-83
2021/08/22 00:29:39;;;;;;;13.68;8.75;;;24.60;99.90;;;;;;4999364;28;20049;-83
2021/08/22 00:32:05;;;;;;;11.57;8.88;;;24.50;99.90;;;;;;4998527;28;20065;-83
2021/08/22 00:34:31;;;;;;;9.65;8.63;;;24.50;99.90;;;;;;4998544;28;20030;-82
2021/08/22 00:36:57;;;;;;;10.95;8.75;;;24.60;99.90;;;;;;4998679;28;20557;-83
2021/08/22 00:39:24;;;;;;;9.32;8.32;;;24.60;99.90;;;;;;4995359;28;20030;-82
2021/08/22 00:41:49;;;;;;;8.77;7.97;;;24.50;99.90;;;;;;4997481;28;20143;-82
2021/08/22 00:44:15;;;;;;;9.15;7.85;;;24.50;99.90;;;;;;4998468;28;20036;-83
2021/08/22 00:46:41;;;;;;;9.55;8.50;;;24.50;99.90;;;;;;4998184;28;20038;-83
2021/08/22 00:49:07;;;;;;;12.75;7.70;;;24.50;99.90;;;;;;4998472;28;20038;-82
2021/08/22 00:51:34;;;;;;;9.35;7.68;;;24.40;99.90;;;;;;4996042;28;20049;-83
2021/08/22 00:54:01;;;;;;;11.07;7.65;;;24.30;99.90;;;;;;4996519;28;20050;-83
2021/08/22 00:56:26;;;;;;;9.35;8.27;;;24.20;99.90;;;;;;4998303;28;20506;-83
2021/08/22 00:58:52;;;;;;;9.88;8.52;;;24.20;99.90;;;;;;4998155;28;20034;-82
2021/08/22 01:01:24;;;;;;;8.82;7.93;;;24.20;99.90;;;;;;4998531;28;20022;-83
2021/08/22 01:03:58;;;;;;;9.35;8.05;;;24.10;99.90;;;;;;4998151;28;20037;-82
2021/08/22 01:06:29;;;;;;;10.02;8.30;;;24.10;99.90;;;;;;4980688;28;20026;-82
2021/08/22 01:09:00;;;;;;;9.35;8.43;;;24.10;99.90;;;;;;4996888;28;20056;-83
2021/08/22 01:11:29;;;;;;;9.45;8.43;;;24.10;99.90;;;;;;4998147;28;20050;-83
2021/08/22 01:13:57;;;;;;;12.10;8.75;;;24.00;99.90;;;;;;4997791;28;20038;-83
2021/08/22 01:16:26;;;;;;;11.23;8.70;;;24.00;99.90;;;;;;4998936;28;20507;-82
2021/08/22 01:18:55;;;;;;;9.43;8.25;;;23.90;99.90;;;;;;4980546;28;20018;-83
2021/08/22 01:21:22;;;;;;;9.68;8.10;;;23.90;99.90;;;;;;4993761;28;20027;-83
2021/08/22 01:23:55;;;;;;;10.35;8.45;;;23.80;99.90;;;;;;4997621;28;20081;-82
2021/08/22 01:26:35;;;;;;;9.32;8.10;;;23.80;99.90;;;;;;4997055;28;20026;-83
2021/08/22 01:29:03;;;;;;;11.18;8.50;;;23.70;99.90;;;;;;4997496;28;20034;-83
2021/08/22 01:31:49;;;;;;;12.48;7.82;;;23.60;99.90;;;;;;4997529;28;20403;-82
2021/08/22 01:34:18;;;;;;;9.88;7.85;;;23.50;99.90;;;;;;4997732;28;20396;-83
2021/08/22 01:36:44;;;;;;;9.60;8.50;;;23.50;99.90;;;;;;4996775;28;20034;-82
2021/08/22 01:39:11;;;;;;;9.98;8.13;;;23.50;99.90;;;;;;4993730;28;20046;-82
2021/08/22 01:41:38;;;;;;;8.68;7.00;;;23.60;99.90;;;;;;4998220;28;20102;-82
2021/08/22 01:44:05;;;;;;;8.23;7.32;;;23.70;99.90;;;;;;4997648;28;20034;-83
2021/08/22 01:46:32;;;;;;;8.23;7.20;;;23.80;99.90;;;;;;4997337;28;20027;-82
2021/08/22 01:48:59;;;;;;;7.60;6.80;;;23.80;99.90;;;;;;4997306;28;20034;-83
2021/08/22 01:51:30;;;;;;;7.40;6.70;;;23.90;99.90;;;;;;4993962;28;20042;-83
2021/08/22 01:54:07;;;;;;;7.30;6.40;;;23.90;99.90;;;;;;4995244;28;20778;-83
2021/08/22 01:56:33;;;;;;;9.13;7.05;;;23.90;99.90;;;;;;4996599;28;20495;-83
2021/08/22 01:59:00;;;;;;;10.50;7.10;;;24.00;99.90;;;;;;4997072;28;20113;-82
2021/08/22 02:01:26;;;;;;;7.43;6.10;;;24.00;99.90;;;;;;4997061;28;20045;-82
2021/08/22 02:04:01;;;;;;;6.63;5.95;;;24.10;99.90;;;;;;4997050;28;20045;-83
2021/08/22 02:06:41;;;;;;;9.13;6.20;;;24.10;99.90;;;;;;4993952;28;20406;-82
2021/08/22 02:09:08;;;;;;;8.65;6.80;;;24.00;99.90;;;;;;4993333;28;20042;-83
2021/08/22 02:11:44;;;;;;;7.65;6.22;;;24.00;99.90;;;;;;4997342;28;20043;-83
2021/08/22 02:14:14;;;;;;;6.28;5.68;;;24.10;99.90;;;;;;4996813;28;20069;-83
2021/08/22 02:16:49;;;;;;;7.20;6.50;;;24.10;99.90;;;;;;4997281;28;20092;-82
2021/08/22 02:19:15;;;;;;;7.07;6.38;;;24.10;99.90;;;;;;4997070;28;20045;-83
2021/08/22 02:21:41;;;;;;;6.30;5.70;;;24.00;99.90;;;;;;4995424;28;20026;-82
2021/08/22 02:24:08;;;;;;;6.63;5.78;;;24.00;99.90;;;;;;4993603;28;20057;-82
2021/08/22 02:26:35;;;;;;;6.90;6.25;;;24.10;99.90;;;;;;4996971;28;20062;-83
2021/08/22 02:29:00;;;;;;;6.68;5.95;;;24.00;99.90;;;;;;4997039;28;20030;-82
2021/08/22 02:31:28;;;;;;;5.97;5.38;;;23.90;99.90;;;;;;4996719;28;20035;-82
2021/08/22 02:33:54;;;;;;;6.47;5.88;;;24.00;99.90;;;;;;4996078;28;20434;-82
2021/08/22 02:36:20;;;;;;;6.40;5.70;;;23.90;99.90;;;;;;4992370;28;20447;-82
2021/08/22 02:38:46;;;;;;;6.72;6.03;;;23.80;99.90;;;;;;4996581;28;20069;-82
2021/08/22 02:41:12;;;;;;;7.28;6.03;;;23.80;99.90;;;;;;4996426;28;20030;-82
2021/08/22 02:43:38;;;;;;;6.32;5.30;;;23.80;99.90;;;;;;4996808;28;20027;-83
2021/08/22 02:46:04;;;;;;;6.72;5.95;;;23.80;99.90;;;;;;4996064;28;20026;-83
2021/08/22 02:48:29;;;;;;;7.68;6.00;;;23.60;99.90;;;;;;4993585;28;20036;-82
2021/08/22 02:50:55;;;;;;;7.00;6.03;;;23.60;99.90;;;;;;4995038;28;20113;-82
2021/08/22 02:53:20;;;;;;;6.43;5.68;;;23.50;99.90;;;;;;4996636;28;20074;-82
2021/08/22 02:55:46;;;;;;;7.13;6.00;;;23.60;99.90;;;;;;4995976;28;20052;-82
2021/08/22 02:58:12;;;;;;;6.43;5.63;;;23.50;99.90;;;;;;4996011;28;20031;-82
2021/08/22 03:00:37;;;;;;;6.32;5.72;;;23.40;99.90;;;;;;4994369;28;20033;-82
2021/08/22 03:03:03;;;;;;;6.72;6.03;;;23.50;99.90;;;;;;4993858;28;20031;-82
2021/08/22 03:05:29;;;;;;;6.47;5.57;;;23.50;99.90;;;;;;4996575;28;20030;-82
2021/08/22 03:07:54;;;;;;;6.70;5.68;;;23.40;99.90;;;;;;4995824;28;20138;-82
2021/08/22 03:10:20;;;;;;;7.05;5.63;;;23.40;99.90;;;;;;4995630;28;20037;-82
2021/08/22 03:12:46;;;;;;;7.00;6.32;;;23.30;99.90;;;;;;4995745;28;20088;-82
2021/08/22 03:15:12;;;;;;;6.90;6.20;;;23.40;99.90;;;;;;4992620;28;20085;-83
2021/08/22 03:17:38;;;;;;;6.55;5.90;;;23.40;99.90;;;;;;4996441;28;20048;-83
2021/08/22 03:20:06;;;;;;;7.05;5.82;;;23.50;99.90;;;;;;4978972;28;20494;-82
2021/08/22 03:22:32;;;;;;;6.70;6.07;;;23.60;99.90;;;;;;4995453;28;20113;-82
2021/08/22 03:24:58;;;;;;;6.80;5.65;;;23.60;99.90;;;;;;4995759;28;20080;-82
2021/08/22 03:27:24;;;;;;;6.40;5.80;;;23.50;99.90;;;;;;4992390;28;20026;-82
2021/08/22 03:29:50;;;;;;;6.07;5.43;;;23.50;99.90;;;;;;4995205;28;20034;-82
2021/08/22 03:32:16;;;;;;;6.13;5.53;;;23.40;99.90;;;;;;4996291;28;20068;-82
2021/08/22 03:34:42;;;;;;;6.95;5.72;;;23.50;99.90;;;;;;4995217;28;20038;-82
2021/08/22 03:37:07;;;;;;;6.47;5.88;;;23.50;99.90;;;;;;4995494;28;20030;-82
2021/08/22 03:39:33;;;;;;;6.43;5.82;;;23.40;99.90;;;;;;4993297;28;20492;-82
2021/08/22 03:41:59;;;;;;;7.38;6.40;;;23.40;99.90;;;;;;4993768;28;20108;-82
2021/08/22 03:44:25;;;;;;;9.70;6.65;;;23.40;99.90;;;;;;4996770;28;20030;-82
2021/08/22 03:46:50;;;;;;;7.55;6.45;;;23.40;99.90;;;;;;5000074;28;20418;-82
2021/08/22 03:49:16;;;;;;;7.60;6.50;;;23.40;99.90;;;;;;4999376;28;20025;-83
2021/08/22 03:51:42;;;;;;;9.30;6.28;;;23.40;99.90;;;;;;4998033;28;20120;-82
2021/08/22 03:54:07;;;;;;;7.93;6.38;;;23.40;99.90;;;;;;4996271;28;20039;-82
2021/08/22 03:56:33;;;;;;;7.88;6.93;;;23.40;99.90;;;;;;5000437;28;20022;-82
2021/08/22 03:59:01;;;;;;;7.28;6.50;;;23.40;99.90;;;;;;4999245;28;20403;-82
2021/08/22 04:01:26;;;;;;;8.25;7.22;;;23.40;99.90;;;;;;4999237;28;20030;-82
2021/08/22 04:03:52;;;;;;;8.27;7.47;;;23.30;99.90;;;;;;4999542;28;20033;-82
2021/08/22 04:06:18;;;;;;;9.18;7.70;;;23.30;99.90;;;;;;4994741;28;20022;-83
2021/08/22 04:08:43;;;;;;;8.23;7.22;;;23.40;99.90;;;;;;5000016;28;20105;-82
2021/08/22 04:11:09;;;;;;;7.95;7.03;;;23.40;99.90;;;;;;4998967;28;20133;-82
2021/08/22 04:13:35;;;;;;;11.07;7.68;;;23.40;99.90;;;;;;4999175;28;20032;-82
2021/08/22 04:16:01;;;;;;;9.50;8.02;;;23.40;99.90;;;;;;4999506;28;20038;-82
2021/08/22 04:18:26;;;;;;;8.80;8.00;;;23.40;99.90;;;;;;4978269;28;20033;-82
2021/08/22 04:20:52;;;;;;;9.40;7.75;;;23.40;99.90;;;;;;4998117;28;20058;-82
2021/08/22 04:23:18;;;;;;;8.80;8.00;;;23.30;99.90;;;;;;4999059;28;20033;-82
2021/08/22 04:25:44;;;;;;;8.35;7.53;;;23.30;99.90;;;;;;4999205;28;20031;-82
2021/08/22 04:28:09;;;;;;;8.88;7.97;;;23.30;99.90;;;;;;4999052;28;20029;-82
2021/08/22 04:30:35;;;;;;;8.13;6.75;;;23.20;99.90;;;;;;4997026;28;20039;-82
2021/08/22 04:33:01;;;;;;;9.30;6.07;;;23.30;99.90;;;;;;4996690;28;20035;-82
2021/08/22 04:35:30;;;;;;;6.25;5.70;;;23.30;99.90;;;;;;4981204;28;20077;-82
2021/08/22 04:37:56;;;;;;;6.75;5.55;;;23.20;99.90;;;;;;4998897;28;20113;-83
2021/08/22 04:40:21;;;;;;;6.15;5.55;;;23.30;99.90;;;;;;4998494;28;20105;-82
2021/08/22 04:42:47;;;;;;;9.65;5.25;;;23.30;99.90;;;;;;4998225;28;20034;-82
2021/08/22 04:45:13;;;;;;;6.82;5.03;;;23.20;99.90;;;;;;4995020;28;20541;-82
2021/08/22 04:47:38;;;;;;;5.43;4.70;;;23.10;99.90;;;;;;4999004;28;20038;-82
2021/08/22 04:50:04;;;;;;;5.85;5.30;;;23.10;99.90;;;;;;4998030;28;20109;-82
2021/08/22 04:52:30;;;;;;;8.05;4.93;;;23.00;99.90;;;;;;4997985;28;20038;-82
2021/08/22 04:54:55;;;;;;;5.40;4.90;;;23.00;99.90;;;;;;4998679;28;20021;-82
2021/08/22 04:57:21;;;;;;;5.22;4.80;;;22.90;99.90;;;;;;4994487;28;20030;-82
2021/08/22 04:59:47;;;;;;;5.25;4.75;;;22.80;99.90;;;;;;4998449;28;20085;-82
2021/08/22 05:02:12;;;;;;;6.07;4.85;;;22.70;99.90;;;;;;4997814;28;20018;-82
2021/08/22 05:04:38;;;;;;;6.43;5.32;;;22.60;99.90;;;;;;4998022;28;20045;-83
2021/08/22 05:07:05;;;;;;;5.75;4.93;;;22.60;99.90;;;;;;4998052;28;20021;-82
2021/08/22 05:09:31;;;;;;;8.00;5.68;;;22.60;99.90;;;;;;4995819;28;20530;-82
2021/08/22 05:11:58;;;;;;;5.75;4.88;;;22.60;99.90;;;;;;4996279;28;20037;-82
2021/08/22 05:14:24;;;;;;;5.40;4.90;;;22.60;99.90;;;;;;4998597;28;20114;-82
2021/08/22 05:16:49;;;;;;;6.25;5.10;;;22.80;99.90;;;;;;4997702;28;20117;-82
2021/08/22 05:19:15;;;;;;;5.95;4.85;;;22.80;99.90;;;;;;4998259;28;20110;-82
2021/08/22 05:21:40;;;;;;;5.45;4.95;;;22.90;99.90;;;;;;4996537;28;20121;-82
2021/08/22 05:24:06;;;;;;;6.63;4.53;;;23.00;99.90;;;;;;4994938;28;20482;-82
2021/08/22 05:26:32;;;;;;;5.30;4.80;;;23.00;99.90;;;;;;4998125;28;20030;-82
2021/08/22 05:28:58;;;;;;;6.28;4.95;;;22.90;99.90;;;;;;4997685;28;20148;-82
2021/08/22 05:31:23;;;;;;;4.63;4.22;;;22.90;99.90;;;;;;4997223;28;20105;-82
2021/08/22 05:33:49;;;;;;;4.88;4.43;;;22.90;99.90;;;;;;4997254;28;20129;-82
2021/08/22 05:36:16;;;;;;;6.63;4.70;;;22.80;99.90;;;;;;4992927;28;20050;-83
2021/08/22 05:38:42;;;;;;;5.07;4.57;;;22.90;99.90;;;;;;4998024;28;20117;-82
2021/08/22 05:41:08;;;;;;;5.82;5.13;;;23.00;99.90;;;;;;4997500;28;20107;-82
2021/08/22 05:43:33;;;;;;;5.22;4.65;;;23.00;99.90;;;;;;4997890;28;20037;-82
2021/08/22 05:45:59;;;;;;;5.20;4.70;;;23.20;99.90;;;;;;4979430;28;20439;-82
2021/08/22 05:48:24;;;;;;;5.45;4.95;;;23.20;99.90;;;;;;4993630;28;20031;-82
2021/08/22 05:50:50;;;;;;;6.15;4.80;;;23.20;99.90;;;;;;4996851;28;20395;-84
2021/08/22 05:53:15;;;;;;;5.97;5.00;;;23.30;99.90;;;;;;4997863;28;20174;-84
2021/08/22 05:55:41;;;;;;;5.30;4.57;;;23.30;99.90;;;;;;4997549;28;20542;-83
2021/08/22 05:58:07;;;;;;;6.05;4.70;;;23.10;99.90;;;;;;4997032;28;20026;-84
2021/08/22 06:00:32;;;;;;;5.07;4.55;;;23.20;99.90;;;;;;4994259;28;20053;-84
2021/08/22 06:02:58;;;;;;;6.32;5.00;;;23.10;99.90;;;;;;4995225;28;20113;-83
2021/08/22 06:05:24;;;;;;;6.63;5.22;;;23.30;99.90;;;;;;4998276;28;20062;-82
2021/08/22 06:07:49;;;;;;;6.28;5.35;;;23.10;99.90;;;;;;4996155;28;20431;-82
2021/08/22 06:10:15;;;;;;;5.65;5.07;;;23.20;99.90;;;;;;4996705;28;20030;-82
2021/08/22 06:12:40;;;;;;;6.32;4.60;;;23.30;99.90;;;;;;4995849;28;20498;-82
2021/08/22 06:15:10;;;;;;;5.03;4.00;;;23.20;99.90;;;;;;4993510;28;20034;-81
2021/08/22 06:17:35;;;;;;;5.10;4.60;;;23.00;99.90;;;;;;4997718;28;20045;-82
2021/08/22 06:20:01;;;;;;;5.53;4.88;;;23.20;99.90;;;;;;4979448;28;20022;-82
2021/08/22 06:22:26;;;;;;;5.30;4.03;;;23.30;99.90;;;;;;4996541;28;20026;-82
2021/08/22 06:24:52;;;;;;;5.57;4.45;;;23.20;99.90;;;;;;4996702;28;20018;-81
2021/08/22 06:27:18;;;;;;;5.28;4.55;;;23.20;99.90;;;;;;4992822;28;20038;-82
2021/08/22 06:29:43;;;;;;;6.32;4.65;;;23.30;99.90;;;;;;4996434;28;20030;-82
2021/08/22 06:32:09;;;;;;;4.78;4.35;;;23.20;99.90;;;;;;4996289;28;20046;-82
2021/08/22 06:34:35;;;;;;;4.82;4.43;;;23.30;99.90;;;;;;4996208;28;20066;-81
2021/08/22 06:37:00;;;;;;;5.50;4.25;;;23.40;99.90;;;;;;4996481;28;20036;-82
2021/08/22 06:39:26;;;;;;;5.55;4.30;;;23.60;99.90;;;;;;4993047;28;20038;-82
2021/08/22 06:41:51;;;;;;;5.50;4.70;;;23.70;99.90;;;;;;4995965;28;20431;-81
2021/08/22 06:44:17;;;;;;;5.03;4.32;;;23.80;99.90;;;;;;4996257;28;20023;-82
2021/08/22 06:46:43;;;;;;;4.95;4.47;;;23.80;99.90;;;;;;4996071;28;20038;-82
2021/08/22 06:49:09;;;;;;;4.90;4.40;;;23.90;99.90;;;;;;4996229;28;20026;-81
2021/08/22 06:51:35;;;;;;;5.03;4.53;;;23.90;99.90;;;;;;4993719;28;20058;-82
2021/08/22 06:54:00;;;;;;;4.57;3.95;;;24.00;99.90;;;;;;4994365;28;20026;-82
2021/08/22 06:56:26;;;;;;;4.82;4.20;;;24.00;99.90;;;;;;4996644;28;20053;-82
2021/08/22 06:58:52;;;;;;;6.55;4.25;;;24.10;99.90;;;;;;4995825;28;20410;-82
2021/08/22 07:01:17;;;;;;;4.88;4.30;;;24.10;99.90;;;;;;4996276;28;20454;-82
2021/08/22 07:03:43;;;;;;;5.20;4.70;;;24.00;99.90;;;;;;4995450;28;20026;-82
2021/08/22 07:06:09;;;;;;;4.35;3.95;;;24.10;99.90;;;;;;4992749;28;20042;-82
2021/08/22 07:08:36;;;;;;;4.78;3.88;;;24.20;99.90;;;;;;4997120;28;20049;-81
2021/08/22 07:11:01;;;;;;;4.65;4.05;;;24.40;99.90;;;;;;4995721;28;20043;-82
2021/08/22 07:13:27;;;;;;;4.72;4.25;;;24.50;99.90;;;;;;4995953;28;20104;-82
2021/08/22 07:15:52;;;;;;;4.97;4.22;;;24.40;99.90;;;;;;4996207;28;20068;-82
2021/08/22 07:18:18;;;;;;;5.85;3.85;;;24.50;99.90;;;;;;5006851;28;20369;-85
2021/08/22 07:20:44;;;;;;;4.70;3.78;;;24.40;99.90;;;;;;4996853;28;20031;-82
2021/08/22 07:23:10;;;;;;;5.63;4.10;;;24.50;99.90;;;;;;4995812;28;20069;-82
2021/08/22 07:25:35;;;;;;;5.07;4.18;;;24.40;99.90;;;;;;4996162;28;20467;-82
2021/08/22 07:28:01;;;;;;;5.95;4.22;;;24.30;99.90;;;;;;4995238;28;20026;-82
2021/08/22 07:30:27;;;;;;;6.00;4.30;;;24.50;99.90;;;;;;4992418;28;20026;-82
2021/08/22 07:32:53;;;;;;;5.22;4.15;;;24.50;99.90;;;;;;4994767;28;20035;-82
2021/08/22 07:35:19;;;;;;;5.03;3.85;;;24.60;99.90;;;;;;4995831;28;20050;-82
2021/08/22 07:37:46;;;;;;;4.43;4.03;;;24.40;99.90;;;;;;4995624;28;20050;-82
2021/08/22 07:40:11;;;;;;;6.40;3.65;;;24.40;99.90;;;;;;4995946;28;20077;-82
2021/08/22 07:42:38;;;;;;;5.10;4.07;;;24.70;99.90;;;;;;4993644;28;20053;-82
2021/08/22 07:45:04;;;;;;;7.30;3.85;;;24.80;99.90;;;;;;4993454;28;20027;-82
2021/08/22 07:47:29;;;;;;;4.43;4.07;;;24.60;99.90;;;;;;4996327;28;20040;-82
2021/08/22 07:49:55;;;;;;;12.52;4.38;;;24.60;99.90;;;;;;4995732;28;20104;-82
2021/08/22 07:52:24;;;;;;;5.85;3.90;;;25.10;99.90;;;;;;4995817;28;20089;-82
2021/08/22 07:54:50;;;;;;;10.02;4.55;;;25.00;99.90;;;;;;4995691;28;20442;-82
2021/08/22 07:57:17;;;;;;;6.30;3.53;;;25.50;99.90;;;;;;4991045;28;20455;-82
2021/08/22 07:59:43;;;;;;;4.50;3.78;;;25.70;99.90;;;;;;4996347;28;20018;-82
2021/08/22 08:02:08;;;;;;;4.35;3.58;;;25.70;99.90;;;;;;4995652;28;20476;-82
2021/08/22 08:04:34;;;;;;;4.40;3.80;;;25.70;99.90;;;;;;4978051;28;20463;-82
2021/08/22 08:06:59;;;;;;;4.25;3.85;;;25.70;99.90;;;;;;4995635;28;20033;-82
2021/08/22 08:09:25;;;;;;;4.45;3.75;;;25.90;99.90;;;;;;4991701;28;20022;-82
2021/08/22 08:11:51;;;;;;;4.28;3.88;;;25.70;99.90;;;;;;5006915;28;20084;-82
2021/08/22 08:14:16;;;;;;;3.55;3.25;;;25.70;99.90;;;;;;4996212;28;20459;-82
2021/08/22 08:16:42;;;;;;;4.15;3.63;;;26.10;99.90;;;;;;4995703;28;20041;-82
2021/08/22 08:19:08;;;;;;;3.90;3.60;;;25.90;99.90;;;;;;4995309;28;20022;-82
2021/08/22 08:21:33;;;;;;;4.00;3.60;;;26.00;99.90;;;;;;4993582;28;20026;-82
2021/08/22 08:23:59;;;;;;;3.85;3.47;;;25.80;99.90;;;;;;4993812;28;20467;-82
2021/08/22 08:26:24;;;;;;;5.47;4.20;;;25.70;99.90;;;;;;4995751;28;20034;-82
2021/08/22 08:28:50;;;;;;;5.13;4.10;;;25.90;99.90;;;;;;4995236;28;20026;-82
2021/08/22 08:31:17;;;;;;;5.68;3.67;;;26.20;99.90;;;;;;4996897;28;20039;-82
2021/08/22 08:33:42;;;;;;;4.80;4.35;;;26.40;99.90;;;;;;4997953;28;20021;-82
2021/08/22 08:36:08;;;;;;;5.53;3.80;;;26.30;99.90;;;;;;4995606;28;20109;-82
2021/08/22 08:38:34;;;;;;;5.22;3.60;;;26.30;99.90;;;;;;4999523;28;20502;-82
2021/08/22 08:41:01;;;;;;;4.43;4.03;;;26.40;99.90;;;;;;4998310;28;20026;-80
2021/08/22 08:43:26;;;;;;;4.78;3.85;;;26.50;99.90;;;;;;4998767;28;20065;-83
2021/08/22 08:46:08;;;;;;;4.10;3.55;;;27.00;99.90;;;;;;4999082;28;20049;-82
2021/08/22 08:49:03;;;;;;;4.80;4.40;;;26.60;99.90;;;;;;4996339;28;20034;-82
2021/08/22 08:52:06;;;;;;;6.20;3.80;;;26.40;99.90;;;;;;4915517;29;20044;-82
2021/08/22 08:54:44;;;;;;;4.93;4.35;;;26.70;99.90;;;;;;4898750;29;20040;-82
2021/08/22 08:57:10;;;;;;;4.63;4.22;;;26.80;99.90;;;;;;4915021;29;20035;-84
2021/08/22 08:59:39;;;;;;;6.18;4.25;;;26.80;99.90;;;;;;4911372;29;20517;-80
2021/08/22 09:02:05;;;;;;;4.97;4.50;;;26.90;99.90;;;;;;4911230;29;20059;-83
2021/08/22 09:04:41;;;;;;;4.70;4.20;;;26.60;99.90;;;;;;4915302;29;20478;-82
2021/08/22 09:07:32;;;;;;;5.20;4.22;;;26.80;99.90;;;;;;4910840;29;20576;-82
2021/08/22 09:10:34;;;;;;;5.97;4.22;;;26.70;99.90;;;;;;4914293;29;20032;-83
2021/08/22 09:13:19;;;;;;;5.78;4.10;;;26.90;99.90;;;;;;4910451;29;20126;-83
2021/08/22 09:16:06;;;;;;;4.65;4.18;;;27.10;99.90;;;;;;4915406;29;20076;-82
2021/08/22 09:18:57;;;;;;;7.00;4.15;;;27.70;99.90;;;;;;4912913;29;20547;-82
2021/08/22 09:21:56;;;;;;;4.53;4.10;;;28.30;99.90;;;;;;4825783;29;20030;-83
2021/08/22 09:24:49;;;;;;;23.63;5.50;;;28.00;99.90;;;;;;4825451;29;20509;-82
2021/08/22 09:27:39;;;;;;;6.20;4.88;;;28.50;99.90;;;;;;4854927;29;20071;-82
2021/08/22 09:30:23;;;;;;;4.88;4.30;;;28.50;99.90;;;;;;4927507;29;20043;-82
2021/08/22 09:33:23;;;;;;;5.28;4.15;;;28.70;99.90;;;;;;4926859;29;20058;-83
2021/08/22 09:36:17;;;;;;;4.57;4.15;;;28.70;99.90;;;;;;4927035;29;20052;-82
2021/08/22 09:39:20;;;;;;;4.43;4.03;;;28.20;99.90;;;;;;4919226;29;20060;-82
2021/08/22 09:42:04;;;;;;;4.60;4.20;;;28.10;99.90;;;;;;4926213;29;20032;-81
2021/08/22 09:45:03;;;;;;;5.15;3.88;;;28.50;99.90;;;;;;4917363;29;20405;-81
2021/08/22 09:47:53;;;;;;;5.00;4.40;;;28.90;99.90;;;;;;4916471;29;20560;-83
2021/08/22 09:50:55;;;;;;;4.53;3.75;;;28.50;99.90;;;;;;4919263;29;20036;-82
2021/08/22 09:54:04;;;;;;;4.53;3.65;;;28.40;99.90;;;;;;4915918;29;20056;-83
2021/08/22 09:57:06;;;;;;;3.90;3.50;;;28.70;99.90;;;;;;4917419;29;20044;-82
2021/08/22 09:59:51;;;;;;;4.05;3.60;;;28.80;99.90;;;;;;5006327;28;20124;-82
2021/08/22 10:02:34;;;;;;;3.70;3.30;;;28.80;99.90;;;;;;4997396;28;20076;-83
2021/08/22 10:05:31;;;;;;;3.80;3.45;;;28.60;99.90;;;;;;4997104;28;20022;-82
2021/08/22 10:08:02;;;;;;;3.97;3.58;;;28.90;99.90;;;;;;4996277;28;20041;-82
2021/08/22 10:10:33;;;;;;;3.88;3.50;;;28.90;99.90;;;;;;4979758;28;20022;-83
2021/08/22 10:12:59;;;;;;;4.57;3.70;;;28.70;99.90;;;;;;4997313;28;20026;-82
2021/08/22 10:15:25;;;;;;;3.67;3.35;;;29.20;99.90;;;;;;4994325;28;20025;-82
2021/08/22 10:17:50;;;;;;;3.60;3.30;;;29.30;99.90;;;;;;4996908;28;20030;-81
2021/08/22 10:20:18;;;;;;;4.05;3.60;;;29.50;99.90;;;;;;4996773;28;20037;-82
2021/08/22 10:22:44;;;;;;;4.35;3.28;;;30.00;99.90;;;;;;4984425;28;20433;-83
2021/08/22 10:25:12;;;;;;;6.05;3.70;;;30.20;99.90;;;;;;5005572;28;20034;-83
2021/08/22 10:27:41;;;;;;;4.03;3.63;;;30.60;99.90;;;;;;4995624;28;20109;-83
2021/08/22 10:30:13;;;;;;;3.67;3.38;;;32.30;99.90;;;;;;4993835;28;20542;-83
2021/08/22 10:33:02;;;;;;;3.95;3.30;;;35.30;99.90;;;;;;4997134;28;20117;-82
2021/08/22 10:35:29;;;;;;;5.57;3.50;;;37.40;99.90;;;;;;4996350;28;20059;-82
2021/08/22 10:37:54;;;;;;;4.43;4.03;;;38.70;99.90;;;;;;4996304;28;20084;-83
2021/08/22 10:40:23;;;;;;;4.18;3.78;;;38.20;99.90;;;;;;4996812;28;20035;-83
2021/08/22 10:43:09;;;;;;;3.60;3.17;;;39.30;99.90;;;;;;4996589;28;20029;-83
2021/08/22 10:45:48;;;;;;;3.13;2.92;;;38.80;99.90;;;;;;4971032;28;20042;-83
2021/08/22 10:48:23;;;;;;;3.80;3.50;;;39.10;99.90;;;;;;4992606;28;20030;-83
2021/08/22 10:51:02;;;;;;;3.72;3.42;;;39.40;99.90;;;;;;5004096;28;20026;-82
2021/08/22 10:53:35;;;;;;;4.40;4.00;;;37.70;99.90;;;;;;4996562;28;20495;-83
2021/08/22 10:56:23;;;;;;;3.92;3.53;;;38.20;99.90;;;;;;4996131;28;20026;-83
2021/08/22 10:58:58;;;;;;;4.00;3.30;;;39.50;99.90;;;;;;4996414;28;20038;-83
2021/08/22 11:01:28;;;;;;;3.65;3.33;;;40.90;99.90;;;;;;4996516;28;20376;-83
2021/08/22 11:04:13;;;;;;;4.10;3.70;;;41.90;99.90;;;;;;4996154;28;20049;-83
2021/08/22 11:06:55;;;;;;;3.60;3.20;;;42.70;99.90;;;;;;4994285;28;20555;-83
2021/08/22 11:09:44;;;;;;;3.88;3.45;;;42.80;99.90;;;;;;4977245;28;20034;-83
2021/08/22 11:12:29;;;;;;;4.43;3.60;;;42.40;99.90;;;;;;4992445;28;20050;-83
2021/08/22 11:15:00;;;;;;;3.60;3.30;;;42.70;99.90;;;;;;4995496;28;20038;-83
2021/08/22 11:17:26;;;;;;;3.92;3.63;;;44.00;99.90;;;;;;4995731;28;20030;-82
2021/08/22 11:19:52;;;;;;;3.50;3.20;;;43.60;99.90;;;;;;4995541;28;20474;-83
2021/08/22 11:22:29;;;;;;;3.83;3.50;;;44.10;99.90;;;;;;4995731;28;20023;-83
2021/08/22 11:24:57;;;;;;;4.00;3.60;;;44.00;99.90;;;;;;4995546;28;20037;-85
2021/08/22 11:27:24;;;;;;;4.15;3.35;;;44.20;99.90;;;;;;4991039;28;20018;-84
2021/08/22 11:29:58;;;;;;;3.67;3.38;;;43.80;99.90;;;;;;4991768;28;20108;-83
2021/08/22 11:32:24;;;;;;;3.80;3.50;;;45.20;99.90;;;;;;4995752;28;20047;-87
2021/08/22 11:34:50;;;;;;;3.80;3.50;;;43.90;99.90;;;;;;4994378;28;20049;-84
2021/08/22 11:37:17;;;;;;;4.10;3.80;;;41.30;99.90;;;;;;4995423;28;20034;-82
2021/08/22 11:39:43;;;;;;;3.80;3.50;;;43.30;99.90;;;;;;4995265;28;20116;-84
2021/08/22 11:42:09;;;;;;;4.40;3.40;;;44.50;99.90;;;;;;4992352;28;20547;-83
2021/08/22 11:44:36;;;;;;;4.65;3.60;;;44.80;99.90;;;;;;4996325;28;20026;-83
2021/08/22 11:47:02;;;;;;;4.10;3.70;;;44.60;99.90;;;;;;4995788;28;20565;-83
2021/08/22 11:49:29;;;;;;;4.07;3.67;;;45.70;99.90;;;;;;4995561;28;20026;-83
2021/08/22 11:51:55;;;;;;;3.83;3.50;;;45.50;99.90;;;;;;4995393;28;20037;-83
2021/08/22 11:54:22;;;;;;;6.38;4.03;;;44.70;99.90;;;;;;4991659;28;20045;-83
2021/08/22 11:56:49;;;;;;;4.28;3.40;;;44.60;99.90;;;;;;4995826;28;20130;-84
2021/08/22 11:59:28;;;;;;;4.10;3.45;;;45.10;99.90;;;;;;4996393;28;20085;-83
2021/08/22 12:02:17;;;;;;;3.78;3.38;;;44.50;99.90;;;;;;4995388;28;20033;-83
2021/08/22 12:04:43;;;;;;;3.80;3.30;;;45.90;99.90;;;;;;4995158;28;20122;-83
2021/08/22 12:07:08;;;;;;;4.78;4.38;;;45.70;99.90;;;;;;4998465;28;20109;-83
2021/08/22 12:09:35;;;;;;;4.28;3.72;;;45.20;99.90;;;;;;4996933;28;20117;-83
2021/08/22 12:12:01;;;;;;;3.75;3.45;;;44.30;99.90;;;;;;4997607;28;20038;-83
2021/08/22 12:14:32;;;;;;;5.35;3.42;;;44.00;99.90;;;;;;4999774;28;20356;-83
2021/08/22 12:16:59;;;;;;;3.58;3.28;;;45.40;99.90;;;;;;4999187;28;20471;-83
2021/08/22 12:19:28;;;;;;;3.53;3.20;;;43.60;99.90;;;;;;4999308;28;20085;-84
2021/08/22 12:21:55;;;;;;;3.88;3.30;;;40.60;99.90;;;;;;4999769;28;20026;-83
2021/08/22 12:24:30;;;;;;;3.72;3.42;;;38.60;99.90;;;;;;5010258;28;20030;-83
2021/08/22 12:27:00;;;;;;;3.67;3.38;;;36.90;99.90;;;;;;4997471;28;20494;-83
2021/08/22 12:29:33;;;;;;;3.45;3.22;;;36.00;99.90;;;;;;4999302;28;20256;-82
2021/08/22 12:32:17;;;;;;;3.60;3.30;;;36.60;99.90;;;;;;4998664;28;20403;-83
2021/08/22 12:34:43;;;;;;;3.50;3.20;;;37.50;99.90;;;;;;4998182;28;20107;-83
2021/08/22 12:37:09;;;;;;;3.20;3.00;;;37.90;99.90;;;;;;4999352;28;20479;-84
2021/08/22 12:39:34;;;;;;;3.60;3.30;;;40.80;99.90;;;;;;4996516;28;20026;-83
2021/08/22 12:42:00;;;;;;;3.25;2.80;;;42.40;99.90;;;;;;4996562;28;20122;-84
2021/08/22 12:44:28;;;;;;;3.58;3.28;;;42.50;99.90;;;;;;4999069;28;20018;-83
2021/08/22 12:47:02;;;;;;;3.78;3.30;;;41.60;99.90;;;;;;4998308;28;20403;-83
2021/08/22 12:49:29;;;;;;;3.35;3.10;;;43.00;99.90;;;;;;4998295;28;20081;-83
2021/08/22 12:51:56;;;;;;;3.65;3.30;;;44.80;99.90;;;;;;4998312;28;20379;-84
2021/08/22 12:54:24;;;;;;;11.60;3.83;;;40.90;99.90;;;;;;4977042;28;20399;-84
2021/08/22 12:56:51;;;;;;;9.13;4.28;;;39.20;99.90;;;;;;4998532;28;20034;-83